Indian, Virginia
Current Conditions -  °F | °C
As of 7:35 AM on Sunday 23 Nov 2014 (Local Time) from KJFZ Reporting Station
Clear Clear  
Wind Chill: 51°   Ceiling: Unl
Heat Index: 51°   Visibility: 10mi
Dew Point: 38°   Wind: 6mph
Humidity: 62%   Direction: 140°SE
Pressure: 30.12"   Gusts: NA
Location:  37.0714°N, 81.7762°W
Report Text: KJFZ 231235Z AUTO 14005KT 10SM CLR 11/04 A3012 RMK AO2 T01060035
Loading
Personal Weather Stations






























Interactive Weather Map New forecast layout! Learn more

10-Day Weather Forecast

Advertisements
Track Severe Weather on mobile